Time;durP1;ratioP1;P1;durP2;ratioP2;P2;SDS_P1;SDS_P2;PMS_P1;PMS_P2;Temp;Humidity;BMP_temperature;BMP_pressure;BME280_temperature;BME280_humidity;BME280_pressure;Samples;Min_cycle;Max_cycle;Signal;HPM_P1;HPM_P2
2023/06/15 00:01:15;;;;;;;9.52;3.90;;;;;;;18.62;58.29;97984.56;4410025;32;20096;-85
2023/06/15 00:03:42;;;;;;;9.43;3.97;;;;;;;18.50;58.59;97988.09;4410206;32;20086;-85
2023/06/15 00:06:10;;;;;;;8.98;3.92;;;;;;;18.57;58.34;97985.84;4410325;32;20098;-84
2023/06/15 00:08:37;;;;;;;10.32;4.68;;;;;;;18.23;59.17;97982.34;4409895;32;20438;-85
2023/06/15 00:11:04;;;;;;;8.48;3.70;;;;;;;18.28;58.95;97982.81;4410237;32;20169;-85
2023/06/15 00:13:30;;;;;;;9.65;3.95;;;;;;;18.44;58.10;97984.19;4409895;32;20156;-84
2023/06/15 00:15:57;;;;;;;11.90;4.05;;;;;;;18.66;57.55;97975.56;4410150;32;20113;-84
2023/06/15 00:18:25;;;;;;;8.18;3.40;;;;;;;18.76;56.98;97970.47;4410133;32;20128;-84
2023/06/15 00:20:53;;;;;;;9.50;3.60;;;;;;;18.19;58.77;97976.53;4409929;32;20081;-84
2023/06/15 00:23:26;;;;;;;9.10;3.80;;;;;;;18.11;59.31;97977.09;4409969;32;20069;-84
2023/06/15 00:25:55;;;;;;;8.85;3.62;;;;;;;18.36;57.48;97981.31;4410170;32;20090;-85
2023/06/15 00:28:22;;;;;;;8.68;3.40;;;;;;;18.20;57.85;97979.03;4409657;32;20408;-84
2023/06/15 00:30:50;;;;;;;10.25;3.55;;;;;;;17.85;59.16;97984.22;4410133;32;20082;-85
2023/06/15 00:33:17;;;;;;;9.68;3.62;;;;;;;18.14;57.88;97982.09;4410029;32;20148;-85
2023/06/15 00:35:44;;;;;;;7.87;3.72;;;;;;;18.25;57.35;97972.63;4409710;32;20104;-84
2023/06/15 00:38:11;;;;;;;7.57;3.33;;;;;;;17.52;59.70;97982.25;4409998;32;20559;-85
2023/06/15 00:40:38;;;;;;;9.05;3.87;;;;;;;18.15;58.44;97977.69;4410054;32;20173;-85
2023/06/15 00:43:06;;;;;;;7.97;3.62;;;;;;;18.46;57.33;97982.28;4409491;32;20601;-85
2023/06/15 00:45:34;;;;;;;9.27;3.60;;;;;;;18.54;57.29;97984.31;4409974;32;20425;-85
2023/06/15 00:48:01;;;;;;;7.30;3.17;;;;;;;17.67;59.38;97984.72;4409995;32;20104;-85
2023/06/15 00:50:30;;;;;;;8.20;3.70;;;;;;;18.36;57.57;97989.13;4409458;32;20094;-85
2023/06/15 00:53:00;;;;;;;9.23;3.60;;;;;;;18.88;55.47;97979.97;4409899;32;20078;-85
2023/06/15 00:55:28;;;;;;;12.68;4.20;;;;;;;18.41;56.11;97983.59;4396132;32;20165;-84
2023/06/15 00:57:56;;;;;;;9.07;3.72;;;;;;;18.12;57.33;97976.16;4409627;32;20142;-85
2023/06/15 01:00:23;;;;;;;7.85;3.35;;;;;;;18.05;57.81;97974.09;4396135;32;20456;-85
2023/06/15 01:02:50;;;;;;;9.85;3.65;;;;;;;17.63;59.20;97976.25;4409469;32;20103;-85
2023/06/15 01:05:18;;;;;;;11.32;3.95;;;;;;;18.15;57.84;97980.31;4396227;32;20165;-85
2023/06/15 01:07:47;;;;;;;9.20;3.72;;;;;;;18.13;58.69;97976.97;4409763;32;20090;-85
2023/06/15 01:10:18;;;;;;;8.38;3.53;;;;;;;17.52;60.92;97978.81;4395411;32;20098;-85
2023/06/15 01:12:50;;;;;;;8.30;3.55;;;;;;;17.46;61.40;97987.09;4409648;32;20082;-85
2023/06/15 01:15:18;;;;;;;8.43;3.53;;;;;;;17.87;60.28;97982.34;4409727;32;20089;-85
2023/06/15 01:17:46;;;;;;;9.40;3.50;;;;;;;17.49;60.06;97982.47;4395626;32;20117;-85
2023/06/15 01:20:17;;;;;;;8.13;3.45;;;;;;;17.52;59.98;97982.25;4409380;32;20155;-85
2023/06/15 01:22:55;;;;;;;10.27;3.90;;;;;;;18.02;58.14;97979.56;4409490;32;20101;-85
2023/06/15 01:25:33;;;;;;;8.85;3.80;;;;;;;17.48;59.33;97983.44;4409221;32;20126;-85
2023/06/15 01:28:02;;;;;;;9.70;3.58;;;;;;;18.14;57.16;97976.84;4409529;32;20369;-85
2023/06/15 01:30:39;;;;;;;8.23;3.62;;;;;;;17.98;57.47;97984.19;4409194;32;20468;-85
2023/06/15 01:33:06;;;;;;;7.62;3.60;;;;;;;17.84;57.63;97981.72;4409290;32;20512;-85
2023/06/15 01:35:34;;;;;;;9.77;3.70;;;;;;;17.80;58.40;97986.34;4395747;32;20097;-85
2023/06/15 01:38:01;;;;;;;9.43;3.83;;;;;;;17.90;57.82;97976.06;4408845;32;20141;-84
2023/06/15 01:40:30;;;;;;;12.02;3.85;;;;;;;17.77;57.95;97981.37;4409056;32;20460;-85
2023/06/15 01:42:57;;;;;;;10.55;3.50;;;;;;;17.33;58.87;97984.50;4409180;32;20094;-85
2023/06/15 01:45:25;;;;;;;8.32;3.35;;;;;;;17.73;57.60;97976.47;4408826;32;20151;-84
2023/06/15 01:47:53;;;;;;;8.93;3.25;;;;;;;17.81;57.00;97984.56;4409167;32;20110;-85
2023/06/15 01:50:21;;;;;;;7.10;3.03;;;;;;;17.12;59.61;97976.47;4395280;32;20109;-85
2023/06/15 01:52:48;;;;;;;7.75;3.40;;;;;;;17.01;59.55;97978.94;4395067;32;20090;-84
2023/06/15 01:55:15;;;;;;;8.15;3.60;;;;;;;17.20;59.10;97975.91;4408887;32;20106;-84
2023/06/15 01:57:43;;;;;;;11.93;3.42;;;;;;;17.11;59.20;97969.53;4408926;32;20112;-84
2023/06/15 02:00:13;;;;;;;6.43;2.80;;;;;;;16.71;60.61;97963.69;4408616;32;20145;-85
2023/06/15 02:02:40;;;;;;;9.00;3.33;;;;;;;16.75;60.07;97965.97;4408977;32;20120;-85
2023/06/15 02:05:07;;;;;;;8.45;3.80;;;;;;;16.66;60.55;97963.97;4408959;32;20111;-84
2023/06/15 02:07:34;;;;;;;7.95;3.33;;;;;;;16.92;59.95;97975.25;4394877;32;20410;-85
2023/06/15 02:10:02;;;;;;;10.00;3.33;;;;;;;16.96;59.51;97973.25;4408950;32;20137;-85
2023/06/15 02:12:30;;;;;;;9.90;3.40;;;;;;;16.38;61.88;97975.44;4408773;32;20505;-85
2023/06/15 02:14:57;;;;;;;9.15;3.20;;;;;;;16.34;61.71;97965.31;4408524;32;20082;-85
2023/06/15 02:17:24;;;;;;;7.72;3.10;;;;;;;16.33;61.94;97966.25;4408698;32;20113;-85
2023/06/15 02:19:51;;;;;;;8.13;3.35;;;;;;;16.64;61.20;97967.63;4408306;32;20090;-84
2023/06/15 02:22:18;;;;;;;9.23;3.10;;;;;;;16.65;60.99;97967.50;4409933;32;20082;-85
2023/06/15 02:24:45;;;;;;;7.07;3.20;;;;;;;16.37;61.83;97970.31;4410983;32;20101;-85
2023/06/15 02:27:12;;;;;;;9.15;3.15;;;;;;;16.43;62.12;97964.69;4410596;32;20094;-85
2023/06/15 02:29:39;;;;;;;9.85;3.10;;;;;;;16.87;60.42;97960.84;4410891;32;20150;-85
2023/06/15 02:32:07;;;;;;;7.75;3.00;;;;;;;16.39;61.84;97971.06;4410814;32;20104;-85
2023/06/15 02:34:34;;;;;;;9.05;3.17;;;;;;;16.55;61.66;97970.84;4410475;32;20090;-85
2023/06/15 02:37:01;;;;;;;8.93;3.20;;;;;;;16.62;61.39;97980.75;4410770;32;20112;-85
2023/06/15 02:39:28;;;;;;;8.88;3.37;;;;;;;17.02;59.85;97984.09;4410850;32;20091;-85
2023/06/15 02:41:55;;;;;;;7.95;3.10;;;;;;;17.08;59.36;97977.59;4410428;32;20235;-85
2023/06/15 02:44:22;;;;;;;9.23;3.40;;;;;;;16.62;60.93;97983.34;4410822;32;20268;-85
2023/06/15 02:46:49;;;;;;;10.27;3.10;;;;;;;16.42;62.18;97981.28;4410816;32;20098;-85
2023/06/15 02:49:18;;;;;;;8.73;3.50;;;;;;;16.40;62.23;97981.37;4410348;32;20110;-85
2023/06/15 02:51:45;;;;;;;7.87;2.97;;;;;;;16.29;63.01;97975.22;4410665;32;20473;-85
2023/06/15 02:54:12;;;;;;;9.77;2.97;;;;;;;16.70;62.22;97975.88;4410779;32;20429;-85
2023/06/15 02:56:41;;;;;;;7.60;2.97;;;;;;;16.86;61.90;97967.84;4410105;32;20101;-85
2023/06/15 02:59:08;;;;;;;8.88;3.20;;;;;;;17.42;58.97;97973.41;4410630;32;20093;-85
2023/06/15 03:01:38;;;;;;;10.25;3.15;;;;;;;17.32;58.92;97967.19;4410627;32;20161;-85
2023/06/15 03:04:13;;;;;;;7.93;2.87;;;;;;;16.88;60.62;97963.34;4410385;32;20111;-85
2023/06/15 03:06:41;;;;;;;9.02;2.80;;;;;;;17.56;58.02;97970.69;4410798;32;20094;-85
2023/06/15 03:09:08;;;;;;;9.32;3.20;;;;;;;17.72;56.67;97966.97;4410337;32;20090;-85
2023/06/15 03:11:35;;;;;;;14.50;3.50;;;;;;;17.39;58.14;97971.03;4410695;32;20074;-85
2023/06/15 03:14:02;;;;;;;9.20;3.50;;;;;;;17.26;58.39;97967.66;4410506;32;20484;-85
2023/06/15 03:16:32;;;;;;;9.32;2.85;;;;;;;16.85;60.22;97962.72;4410270;32;20437;-85
2023/06/15 03:19:01;;;;;;;9.60;3.25;;;;;;;16.94;61.09;97973.34;4410508;32;20181;-85
2023/06/15 03:21:29;;;;;;;7.47;2.97;;;;;;;17.42;59.24;97969.97;4410614;32;20116;-85
2023/06/15 03:23:56;;;;;;;8.77;2.92;;;;;;;17.31;60.79;97973.34;4410120;32;20109;-85
2023/06/15 03:26:26;;;;;;;7.10;3.22;;;;;;;17.38;60.33;97972.00;4410592;32;20109;-85
2023/06/15 03:28:57;;;;;;;8.88;3.20;;;;;;;17.16;60.25;97975.28;4410600;32;20456;-85
2023/06/15 03:31:28;;;;;;;9.38;3.00;;;;;;;18.11;57.50;97973.66;4410128;32;20093;-85
2023/06/15 03:33:56;;;;;;;7.68;3.17;;;;;;;17.89;58.36;97972.63;4410536;32;20165;-85
2023/06/15 03:36:25;;;;;;;13.13;3.45;;;;;;;17.89;58.30;97972.63;4410445;32;20526;-85
2023/06/15 03:38:52;;;;;;;10.20;3.08;;;;;;;18.64;56.04;97974.84;4409957;32;20165;-85
2023/06/15 03:41:19;;;;;;;6.90;3.30;;;;;;;18.44;56.22;97976.34;4410531;32;20122;-85
2023/06/15 03:43:46;;;;;;;6.55;2.90;;;;;;;18.24;57.71;97981.41;4410377;32;20098;-85
2023/06/15 03:46:13;;;;;;;6.15;2.92;;;;;;;18.79;57.59;97986.72;4410091;32;20165;-85
2023/06/15 03:48:40;;;;;;;11.88;4.30;;;;;;;19.20;57.41;97976.63;4410296;32;20106;-85
2023/06/15 03:51:07;;;;;;;8.05;3.25;;;;;;;20.23;54.16;97988.34;4410164;32;20070;-85
2023/06/15 03:53:33;;;;;;;8.38;3.47;;;;;;;20.75;52.39;97989.25;4410347;32;20143;-85
2023/06/15 03:56:00;;;;;;;9.35;3.35;;;;;;;21.09;51.26;97992.41;4410158;32;20118;-85
2023/06/15 03:58:27;;;;;;;8.25;3.00;;;;;;;21.76;50.36;97996.19;4409823;32;20449;-84
2023/06/15 04:00:56;;;;;;;9.45;3.47;;;;;;;22.38;48.41;98001.03;4410364;32;20149;-85
2023/06/15 04:03:23;;;;;;;7.85;3.42;;;;;;;22.77;47.99;97995.72;4410292;32;20707;-85
2023/06/15 04:05:50;;;;;;;7.05;3.20;;;;;;;23.34;47.83;97989.37;4409951;32;20163;-85
2023/06/15 04:08:17;;;;;;;7.07;2.87;;;;;;;24.00;46.75;98000.62;4410272;32;20152;-84
2023/06/15 04:10:44;;;;;;;6.72;3.12;;;;;;;24.74;44.35;98003.69;4410313;32;20145;-85
2023/06/15 04:13:11;;;;;;;10.30;3.40;;;;;;;25.14;43.23;97994.38;4409835;32;20145;-85
2023/06/15 04:15:38;;;;;;;6.28;3.15;;;;;;;25.26;43.48;98000.19;4410368;32;20150;-85
2023/06/15 04:18:05;;;;;;;9.55;3.53;;;;;;;25.56;42.68;98004.91;4410070;32;20100;-84
2023/06/15 04:20:32;;;;;;;7.68;3.12;;;;;;;26.26;41.37;98012.47;4409771;32;20173;-85
2023/06/15 04:22:59;;;;;;;7.07;3.20;;;;;;;26.60;40.74;98008.88;4410186;32;20093;-84
2023/06/15 04:25:27;;;;;;;6.10;2.78;;;;;;;26.94;39.75;98011.28;4410155;32;20143;-84
2023/06/15 04:27:55;;;;;;;8.98;3.20;;;;;;;27.33;38.89;98009.53;4409762;32;20171;-84
2023/06/15 04:30:24;;;;;;;7.80;3.20;;;;;;;27.66;37.88;98010.22;4409940;32;20153;-84
2023/06/15 04:32:57;;;;;;;8.48;3.00;;;;;;;27.71;37.44;98017.63;4410172;32;20101;-84
2023/06/15 04:35:24;;;;;;;9.23;2.80;;;;;;;27.48;38.48;98014.09;4409817;32;20098;-84
2023/06/15 04:37:52;;;;;;;7.22;2.97;;;;;;;27.88;38.50;98019.19;4410012;32;20094;-84
2023/06/15 04:40:20;;;;;;;6.28;2.90;;;;;;;28.26;37.66;98013.94;4409641;32;20096;-84
2023/06/15 04:42:47;;;;;;;6.57;2.70;;;;;;;28.36;37.85;98016.38;4409983;32;20204;-84
2023/06/15 04:45:14;;;;;;;6.85;2.65;;;;;;;28.53;37.30;98020.53;4409405;32;20085;-84
2023/06/15 04:47:42;;;;;;;7.68;3.30;;;;;;;28.60;37.48;98016.12;4409569;32;20096;-84
2023/06/15 04:50:13;;;;;;;8.27;2.95;;;;;;;28.38;37.62;98022.31;4409825;32;20338;-84
2023/06/15 04:52:40;;;;;;;7.00;3.10;;;;;;;28.02;38.33;98022.91;4409819;32;20098;-84
2023/06/15 04:55:08;;;;;;;10.25;3.28;;;;;;;28.01;38.37;98023.09;4395923;32;20093;-84
2023/06/15 04:57:35;;;;;;;7.37;3.25;;;;;;;27.66;38.90;98023.47;4409577;32;20094;-85
2023/06/15 05:00:06;;;;;;;7.43;3.22;;;;;;;27.37;39.28;98016.12;4409613;32;20438;-84
2023/06/15 05:02:33;;;;;;;8.35;3.05;;;;;;;27.36;39.23;98018.94;4409365;32;20165;-84
2023/06/15 05:05:00;;;;;;;6.55;3.20;;;;;;;26.57;41.03;98027.69;4409795;32;20093;-84
2023/06/15 05:07:27;;;;;;;8.60;3.97;;;;;;;26.71;39.63;98021.75;4409708;32;20145;-85
2023/06/15 05:09:55;;;;;;;8.80;3.97;;;;;;;27.08;39.00;98015.88;4409209;32;20144;-84
2023/06/15 05:12:22;;;;;;;8.85;3.85;;;;;;;27.05;39.87;98026.81;4409973;32;20101;-81
2023/06/15 05:14:49;;;;;;;9.63;3.92;;;;;;;27.48;39.29;98027.31;4409579;32;20106;-81
2023/06/15 05:17:16;;;;;;;7.70;3.37;;;;;;;27.32;39.89;98022.91;4409136;32;20106;-81
2023/06/15 05:19:43;;;;;;;10.50;3.60;;;;;;;27.32;40.19;98031.69;4409378;32;20110;-82
2023/06/15 05:22:10;;;;;;;8.43;3.58;;;;;;;27.90;39.00;98041.03;4409195;32;20157;-81
2023/06/15 05:24:37;;;;;;;7.55;3.67;;;;;;;28.26;38.36;98035.16;4409471;32;20496;-81
2023/06/15 05:27:04;;;;;;;7.93;3.55;;;;;;;28.10;38.65;98043.25;4409501;32;20426;-81
2023/06/15 05:29:31;;;;;;;7.60;3.42;;;;;;;28.57;37.97;98043.06;4409021;32;20074;-81
2023/06/15 05:32:00;;;;;;;7.95;3.75;;;;;;;28.97;37.85;98044.53;4409298;32;20136;-81
2023/06/15 05:34:27;;;;;;;7.60;3.65;;;;;;;29.19;36.46;98041.97;4409335;32;20141;-81
2023/06/15 05:36:54;;;;;;;8.30;3.83;;;;;;;29.61;36.81;98043.97;4409032;32;20090;-82
2023/06/15 05:39:25;;;;;;;9.27;3.70;;;;;;;30.17;34.66;98055.66;4409100;32;20154;-82
2023/06/15 05:41:52;;;;;;;12.37;4.07;;;;;;;30.70;33.38;98050.84;4409236;32;20106;-82
2023/06/15 05:44:19;;;;;;;10.57;3.95;;;;;;;31.21;31.09;98061.25;4408942;32;20439;-82
2023/06/15 05:46:46;;;;;;;11.00;4.18;;;;;;;31.42;29.69;98048.84;4409016;32;20477;-82
2023/06/15 05:49:13;;;;;;;10.80;4.00;;;;;;;31.83;29.92;98060.34;4409129;32;20409;-84
2023/06/15 05:51:40;;;;;;;7.82;3.65;;;;;;;32.39;29.69;98059.25;4408920;32;20102;-82
2023/06/15 05:54:07;;;;;;;8.35;3.83;;;;;;;32.56;29.25;98065.03;4408868;32;20098;-82
2023/06/15 05:56:34;;;;;;;10.30;4.18;;;;;;;32.50;28.92;98055.97;4409841;32;20277;-82
2023/06/15 05:59:01;;;;;;;8.23;3.80;;;;;;;32.91;27.93;98069.12;4415343;32;20096;-83
2023/06/15 06:01:27;;;;;;;10.60;4.15;;;;;;;32.71;28.32;98069.12;4421519;32;20110;-82
2023/06/15 06:03:54;;;;;;;13.32;4.43;;;;;;;32.53;28.28;98066.22;4418963;32;20169;-83
2023/06/15 06:06:21;;;;;;;9.15;4.03;;;;;;;31.64;29.52;98067.22;4413318;32;20090;-82
2023/06/15 06:08:48;;;;;;;7.87;3.75;;;;;;;30.96;30.31;98068.88;4411691;32;20086;-86
2023/06/15 06:11:15;;;;;;;8.55;4.05;;;;;;;29.92;30.71;98065.00;4417130;32;20114;-82
2023/06/15 06:13:42;;;;;;;11.25;3.62;;;;;;;30.13;31.44;98065.06;4414540;32;20468;-83
2023/06/15 06:16:09;;;;;;;8.90;3.90;;;;;;;28.97;33.34;98064.94;4419577;32;20126;-82
2023/06/15 06:18:36;;;;;;;9.40;4.07;;;;;;;28.68;34.86;98071.81;4413401;32;20161;-83
2023/06/15 06:21:03;;;;;;;9.82;4.22;;;;;;;28.14;35.94;98073.72;4418444;32;20066;-84
2023/06/15 06:23:32;;;;;;;10.93;3.78;;;;;;;27.54;36.98;98074.31;4414892;32;20468;-82
2023/06/15 06:25:59;;;;;;;8.88;3.95;;;;;;;27.09;36.00;98076.62;4418719;32;20821;-84
2023/06/15 06:28:37;;;;;;;9.25;4.45;;;;;;;28.67;34.58;98075.47;4422912;32;20090;-82
2023/06/15 06:31:04;;;;;;;8.90;3.78;;;;;;;28.63;33.82;98074.19;4419217;32;20141;-81
2023/06/15 06:33:32;;;;;;;10.65;4.25;;;;;;;27.89;35.41;98073.03;4422227;32;20070;-82
2023/06/15 06:35:58;;;;;;;9.98;4.35;;;;;;;28.24;34.69;98074.31;4419376;32;20070;-85
2023/06/15 06:38:25;;;;;;;8.13;3.65;;;;;;;27.65;36.36;98071.34;4414132;32;20086;-81
2023/06/15 06:40:52;;;;;;;10.70;4.55;;;;;;;27.27;36.58;98073.78;4414063;32;20077;-83
2023/06/15 06:43:19;;;;;;;9.30;4.15;;;;;;;27.69;34.26;98077.94;4412546;32;20152;-83
2023/06/15 06:45:46;;;;;;;11.77;4.12;;;;;;;28.77;33.38;98078.72;4410706;32;20100;-84
2023/06/15 06:48:13;;;;;;;9.70;4.25;;;;;;;29.14;33.24;98068.25;4410189;32;20169;-83
2023/06/15 06:50:40;;;;;;;8.18;3.55;;;;;;;27.92;33.93;98070.84;4410475;32;20117;-81
2023/06/15 06:53:07;;;;;;;6.80;3.30;;;;;;;27.48;32.75;98081.16;4396693;32;20120;-81
2023/06/15 06:55:34;;;;;;;10.35;4.25;;;;;;;27.92;32.41;98073.50;4409886;32;20086;-83
2023/06/15 06:58:01;;;;;;;8.18;3.45;;;;;;;29.16;30.55;98076.88;4410561;32;20074;-81
2023/06/15 07:00:31;;;;;;;7.60;3.35;;;;;;;27.90;31.73;98080.00;4409969;32;20120;-80
2023/06/15 07:02:58;;;;;;;7.87;3.60;;;;;;;25.83;34.70;98072.56;4410883;32;20097;-81
2023/06/15 07:05:25;;;;;;;7.30;3.40;;;;;;;26.68;33.87;98075.00;4410854;32;20087;-80
2023/06/15 07:07:52;;;;;;;10.52;4.03;;;;;;;26.73;33.75;98072.69;4411563;32;20094;-82
2023/06/15 07:10:19;;;;;;;7.93;3.60;;;;;;;27.16;33.51;98068.00;4410658;32;20478;-80
2023/06/15 07:12:46;;;;;;;8.40;4.12;;;;;;;26.35;34.81;98068.84;4412175;32;20197;-81
2023/06/15 07:15:13;;;;;;;8.13;3.70;;;;;;;27.03;32.22;98071.19;4414933;32;20443;-80
2023/06/15 07:17:41;;;;;;;9.70;3.80;;;;;;;26.86;34.15;98074.81;4410351;32;20434;-81
2023/06/15 07:20:08;;;;;;;8.93;4.00;;;;;;;27.02;34.78;98070.38;4412710;32;20101;-81
2023/06/15 07:22:35;;;;;;;8.85;3.72;;;;;;;26.72;34.94;98073.69;4411150;32;20165;-81
2023/06/15 07:25:02;;;;;;;8.32;3.67;;;;;;;26.76;34.16;98075.81;4419020;32;20556;-81
2023/06/15 07:27:29;;;;;;;7.78;3.25;;;;;;;26.57;32.88;98076.16;4397286;32;20126;-82
2023/06/15 07:29:56;;;;;;;9.25;3.53;;;;;;;26.73;33.86;98073.50;4396260;32;20475;-82
2023/06/15 07:32:23;;;;;;;8.45;3.42;;;;;;;26.30;33.22;98066.72;4410981;32;20090;-82
2023/06/15 07:34:50;;;;;;;9.05;3.67;;;;;;;26.54;32.97;98063.25;4410247;32;20098;-82
2023/06/15 07:37:17;;;;;;;8.50;3.53;;;;;;;27.22;32.54;98068.16;4410226;32;20146;-82
2023/06/15 07:39:44;;;;;;;7.87;3.65;;;;;;;25.89;33.96;98060.53;4410329;32;20116;-85
2023/06/15 07:42:11;;;;;;;9.50;3.85;;;;;;;26.02;33.79;98067.97;4410444;32;20101;-83
2023/06/15 07:44:38;;;;;;;8.32;3.28;;;;;;;27.68;31.59;98068.34;4410825;32;20098;-86
2023/06/15 07:47:07;;;;;;;7.12;3.22;;;;;;;27.69;32.67;98062.03;4413160;32;20082;-86
2023/06/15 07:49:34;;;;;;;8.07;3.25;;;;;;;26.51;33.23;98055.66;4401082;32;20632;-86
2023/06/15 07:52:13;;;;;;;8.40;3.28;;;;;;;27.12;32.86;98061.41;4403694;32;20110;-87
2023/06/15 07:54:41;;;;;;;8.52;3.33;;;;;;;27.22;33.13;98059.38;4415523;32;20077;-86
2023/06/15 07:57:09;;;;;;;11.25;3.67;;;;;;;27.13;31.87;98055.94;4416176;32;20086;-86
2023/06/15 07:59:36;;;;;;;8.65;3.80;;;;;;;27.32;31.72;98055.53;4415202;32;20162;-86
2023/06/15 08:02:03;;;;;;;8.05;3.80;;;;;;;28.51;30.42;98063.19;4416107;32;20113;-87
2023/06/15 08:04:30;;;;;;;9.90;3.65;;;;;;;29.39;28.94;98061.66;4414524;32;20070;-86
2023/06/15 08:06:57;;;;;;;6.60;3.10;;;;;;;30.76;27.42;98060.72;4414792;32;20401;-87
2023/06/15 08:09:24;;;;;;;7.25;3.45;;;;;;;30.14;27.79;98063.22;4414225;32;20058;-87
2023/06/15 08:11:51;;;;;;;6.65;3.00;;;;;;;31.28;26.22;98055.97;4414650;32;20090;-86
2023/06/15 08:14:19;;;;;;;8.48;3.37;;;;;;;30.56;26.10;98064.22;4414514;32;20069;-87
2023/06/15 08:16:46;;;;;;;6.78;2.90;;;;;;;29.23;29.29;98062.66;4414496;32;20081;-87
2023/06/15 08:19:13;;;;;;;8.27;3.28;;;;;;;29.08;28.87;98065.31;4413062;32;20098;-87
2023/06/15 08:21:43;;;;;;;8.95;3.50;;;;;;;29.71;29.33;98063.13;4413638;32;20165;-87
2023/06/15 08:24:10;;;;;;;10.25;3.53;;;;;;;29.49;28.73;98064.06;4413314;32;20157;-87
2023/06/15 08:26:37;;;;;;;6.87;3.15;;;;;;;28.48;29.69;98060.88;4411737;32;20108;-87
2023/06/15 08:29:04;;;;;;;7.40;3.25;;;;;;;29.08;28.31;98062.66;4412641;32;20077;-86
2023/06/15 08:31:48;;;;;;;6.90;3.40;;;;;;;27.20;32.10;98056.91;4412184;32;20093;-86
2023/06/15 08:34:15;;;;;;;7.43;3.42;;;;;;;28.25;30.40;98055.56;4413615;32;20181;-86
2023/06/15 08:36:42;;;;;;;6.47;2.97;;;;;;;28.34;28.26;98056.34;4414139;32;20098;-86
2023/06/15 08:39:11;;;;;;;8.05;3.25;;;;;;;28.84;28.62;98057.59;4410671;32;20433;-86
2023/06/15 08:41:38;;;;;;;7.57;3.12;;;;;;;27.53;29.30;98062.06;4414253;32;20141;-86
2023/06/15 08:44:05;;;;;;;8.15;3.22;;;;;;;28.37;28.41;98058.66;4410188;32;20153;-84
2023/06/15 08:46:32;;;;;;;7.68;3.10;;;;;;;29.55;26.96;98056.16;4409556;32;20091;-84
2023/06/15 08:49:00;;;;;;;6.60;3.28;;;;;;;28.90;27.36;98056.06;4409686;32;20195;-84
2023/06/15 08:51:27;;;;;;;8.95;3.37;;;;;;;29.24;26.28;98059.03;4409810;32;20479;-82
2023/06/15 08:53:57;;;;;;;7.85;3.05;;;;;;;29.50;27.04;98060.41;4409407;32;20098;-84
2023/06/15 08:56:26;;;;;;;6.43;3.22;;;;;;;29.37;26.12;98050.41;4396201;32;20112;-84
2023/06/15 08:58:53;;;;;;;7.90;3.08;;;;;;;28.55;28.43;98049.56;4396142;32;20114;-83
2023/06/15 09:01:25;;;;;;;6.28;2.67;;;;;;;27.20;27.34;98050.78;4409313;32;20157;-83
2023/06/15 09:03:53;;;;;;;6.97;3.00;;;;;;;26.87;26.30;98045.53;4409676;32;20460;-83
2023/06/15 09:06:23;;;;;;;7.68;2.92;;;;;;;26.36;28.46;98058.09;4409574;32;20109;-85
2023/06/15 09:08:51;;;;;;;6.85;3.75;;;;;;;27.91;26.66;98052.47;4409137;32;20228;-85
2023/06/15 09:11:19;;;;;;;9.68;3.53;;;;;;;28.55;26.72;98044.25;4409535;32;20094;-84
2023/06/15 09:13:49;;;;;;;11.90;3.70;;;;;;;28.48;28.33;98047.59;4409128;32;20111;-81
2023/06/15 09:16:16;;;;;;;8.95;3.50;;;;;;;29.60;26.10;98048.47;4395860;32;20579;-81
2023/06/15 09:18:47;;;;;;;6.55;3.10;;;;;;;30.84;24.18;98050.94;4409392;32;20110;-81
2023/06/15 09:21:16;;;;;;;7.32;3.25;;;;;;;29.53;25.63;98047.56;4409204;32;20098;-81
2023/06/15 09:23:44;;;;;;;8.95;3.87;;;;;;;27.06;30.48;98044.38;4409481;32;20100;-81
2023/06/15 09:26:22;;;;;;;9.60;4.07;;;;;;;27.93;30.30;98043.34;4409674;32;20109;-80
2023/06/15 09:28:49;;;;;;;11.30;4.18;;;;;;;29.06;27.53;98050.59;4410492;32;20476;-80
2023/06/15 09:31:33;;;;;;;7.72;3.30;;;;;;;29.40;28.49;98044.72;4410158;32;20165;-80
2023/06/15 09:34:07;;;;;;;8.35;3.15;;;;;;;29.46;27.29;98043.16;4411138;32;20125;-80
2023/06/15 09:36:35;;;;;;;6.50;2.83;;;;;;;29.71;27.53;98036.53;4410869;32;20078;-80
2023/06/15 09:39:03;;;;;;;10.02;3.25;;;;;;;28.75;28.59;98037.44;4410946;32;20164;-79
2023/06/15 09:41:32;;;;;;;8.60;3.40;;;;;;;28.86;27.76;98042.28;4411078;32;20117;-79
2023/06/15 09:44:05;;;;;;;9.25;3.05;;;;;;;28.03;28.32;98037.81;4410704;32;20409;-79
2023/06/15 09:46:32;;;;;;;6.35;3.00;;;;;;;27.39;27.09;98034.47;4410928;32;20137;-79
2023/06/15 09:48:59;;;;;;;7.30;2.90;;;;;;;27.20;28.71;98038.34;4410590;32;20449;-79
2023/06/15 09:51:30;;;;;;;7.22;3.20;;;;;;;27.52;27.40;98034.75;4397447;32;20822;-78
2023/06/15 09:53:59;;;;;;;7.72;3.40;;;;;;;27.57;28.42;98040.38;4410992;32;20086;-79
2023/06/15 09:56:26;;;;;;;7.28;3.45;;;;;;;28.30;26.44;98039.16;4396770;32;20165;-79
2023/06/15 09:59:01;;;;;;;6.35;3.22;;;;;;;28.61;26.25;98040.88;4410966;32;20127;-80
2023/06/15 10:01:30;;;;;;;8.70;3.28;;;;;;;28.26;26.93;98029.84;4410938;32;20093;-80
2023/06/15 10:03:57;;;;;;;7.05;3.28;;;;;;;28.42;26.42;98031.59;4410509;32;20158;-80
2023/06/15 10:06:26;;;;;;;7.40;3.58;;;;;;;29.05;26.98;98028.50;4410991;32;20105;-79
2023/06/15 10:08:57;;;;;;;9.98;3.40;;;;;;;29.79;25.11;98033.75;4397312;32;20101;-79
2023/06/15 10:11:25;;;;;;;7.07;3.53;;;;;;;30.89;24.96;98037.88;4410683;32;20157;-80
2023/06/15 10:14:01;;;;;;;7.90;3.47;;;;;;;30.59;25.61;98039.88;4410870;32;20445;-80
2023/06/15 10:16:28;;;;;;;7.93;3.40;;;;;;;30.88;24.49;98036.22;4397391;32;20086;-81
2023/06/15 10:19:01;;;;;;;6.90;3.20;;;;;;;28.36;26.43;98030.47;4396792;32;20102;-80
2023/06/15 10:21:31;;;;;;;7.45;3.28;;;;;;;27.36;29.09;98021.59;4410892;32;20097;-81
2023/06/15 10:24:03;;;;;;;7.43;3.30;;;;;;;27.56;28.29;98025.47;4397277;32;20090;-81
2023/06/15 10:26:30;;;;;;;7.85;3.33;;;;;;;27.22;29.41;98025.78;4397346;32;20074;-81
2023/06/15 10:29:00;;;;;;;6.62;2.83;;;;;;;27.65;30.79;98035.06;4410736;32;20121;-80
2023/06/15 10:31:38;;;;;;;6.97;2.90;;;;;;;27.33;28.99;98025.41;4410597;32;20497;-81
2023/06/15 10:34:16;;;;;;;7.50;3.35;;;;;;;27.23;29.49;98024.78;4410844;32;20103;-81
2023/06/15 10:37:03;;;;;;;7.32;3.42;;;;;;;28.91;27.60;98018.69;4410928;32;20074;-81
2023/06/15 10:39:41;;;;;;;7.12;3.35;;;;;;;30.51;25.20;98027.50;4410334;32;20097;-83
2023/06/15 10:42:08;;;;;;;7.82;3.58;;;;;;;29.47;26.36;98031.50;4396899;32;20161;-82
2023/06/15 10:44:35;;;;;;;7.97;3.67;;;;;;;28.44;27.26;98027.75;4397073;32;20157;-83
2023/06/15 10:47:07;;;;;;;6.82;3.00;;;;;;;28.27;29.44;98028.00;4410452;32;20460;-83
2023/06/15 10:49:34;;;;;;;7.47;3.40;;;;;;;28.16;26.94;98024.78;4410599;32;20528;-83
2023/06/15 10:52:04;;;;;;;7.78;3.20;;;;;;;29.51;26.20;98025.66;4412161;32;20093;-84
2023/06/15 10:54:31;;;;;;;7.90;3.30;;;;;;;29.46;28.71;98017.41;4413068;32;20089;-83
2023/06/15 10:56:58;;;;;;;8.40;3.12;;;;;;;28.12;27.88;98027.97;4412876;32;20108;-83
2023/06/15 10:59:43;;;;;;;8.15;3.50;;;;;;;28.86;26.91;98021.03;4410326;32;20150;-82
2023/06/15 11:02:28;;;;;;;7.55;3.10;;;;;;;27.72;27.90;98019.28;4396975;32;20147;-83
2023/06/15 11:05:09;;;;;;;7.07;2.90;;;;;;;29.92;26.92;98020.59;4412107;32;20487;-84
2023/06/15 11:07:46;;;;;;;12.65;4.45;;;;;;;28.01;28.94;98021.25;4410827;32;20129;-82
2023/06/15 11:10:37;;;;;;;7.70;3.70;;;;;;;29.07;28.25;98015.88;4411183;32;20117;-85
2023/06/15 11:13:05;;;;;;;7.75;3.55;;;;;;;29.99;25.25;98022.50;4410371;32;20112;-83
2023/06/15 11:15:34;;;;;;;9.13;3.80;;;;;;;29.57;27.93;98016.94;4411158;32;20093;-82
2023/06/15 11:18:03;;;;;;;7.78;3.50;;;;;;;29.69;26.79;98021.78;4410556;32;20077;-81
2023/06/15 11:20:59;;;;;;;7.78;3.35;;;;;;;29.80;27.35;98029.28;4409981;32;20086;-81
2023/06/15 11:23:35;;;;;;;6.93;3.10;;;;;;;30.34;26.02;98010.19;4410419;32;20113;-82
2023/06/15 11:26:02;;;;;;;7.15;3.40;;;;;;;30.01;26.62;98026.63;4410583;32;20101;-82
2023/06/15 11:28:33;;;;;;;8.10;3.40;;;;;;;30.08;27.94;98026.72;4410088;32;20479;-82
2023/06/15 11:31:06;;;;;;;7.80;3.05;;;;;;;28.96;28.36;98018.16;4410508;32;20152;-82
2023/06/15 11:33:36;;;;;;;6.57;3.37;;;;;;;29.07;26.56;98018.53;4410485;32;20106;-82
2023/06/15 11:36:07;;;;;;;7.15;3.12;;;;;;;29.91;25.04;98021.63;4410131;32;20101;-82
2023/06/15 11:38:35;;;;;;;8.05;3.83;;;;;;;29.60;26.25;98011.25;4411668;32;20058;-81